Letzte 24h
Datum & Zeit Temp. Luft-
feuchte
Wind Nieder-
schlag
Luftdruck Tendenz
IN OUT IN OUT Richtung Min. Max.
2024.02.25 11:58 8.2 °C 3.6 °C 67% 99% NNO 12 ° 1 km/h 7 km/h 0.0 mm 1010.40 hPa langsam fallend
12:58 8.6 °C 3.7 °C 68% 99% N 354 ° 4 km/h 9 km/h 0.0 mm 1009.90 hPa langsam fallend
13:58 9.0 °C 4.6 °C 67% 97% N 357 ° 3 km/h 7 km/h 0.0 mm 1009.00 hPa fallend
14:58 9.3 °C 5.9 °C 68% 95% NNW 340 ° 5 km/h 10 km/h 0.0 mm 1008.60 hPa fallend
15:58 9.7 °C 5.9 °C 68% 91% NW 315 ° 2 km/h 7 km/h 0.0 mm 1008.30 hPa fallend
16:58 9.8 °C 5.9 °C 67% 89% SSW 191 ° 0 km/h 4 km/h 0.0 mm 1007.80 hPa langsam fallend
17:58 9.4 °C 4.2 °C 66% 91% SW 214 ° 0 km/h 5 km/h 0.0 mm 1007.60 hPa langsam fallend
18:58 9.0 °C 3.6 °C 65% 93% S 180 ° 1 km/h 5 km/h 0.0 mm 1007.70 hPa langsam fallend
19:58 8.4 °C 3.4 °C 65% 93% WNW 300 ° 1 km/h 6 km/h 0.0 mm 1007.60 hPa langsam fallend
20:58 8.0 °C 3.5 °C 65% 95% NNW 327 ° 2 km/h 9 km/h 0.0 mm 1006.80 hPa langsam fallend
21:58 7.5 °C 3.7 °C 64% 96% WNW 296 ° 1 km/h 5 km/h 0.0 mm 1006.60 hPa langsam fallend
22:58 7.1 °C 5.3 °C 64% 96% SO 135 ° 1 km/h 7 km/h 0.0 mm 1006.00 hPa fallend
23:58 7.1 °C 5.1 °C 63% 89% SO 135 ° 0 km/h 6 km/h 0.0 mm 1005.70 hPa langsam fallend
2024.02.26 00:58 6.9 °C 6.0 °C 65% 83% SO 145 ° 2 km/h 11 km/h 0.0 mm 1005.10 hPa langsam fallend
01:58 6.9 °C 6.0 °C 65% 78% SO 126 ° 3 km/h 11 km/h 0.0 mm 1004.70 hPa langsam fallend
02:58 6.9 °C 5.2 °C 65% 73% SO 133 ° 2 km/h 9 km/h 0.0 mm 1004.10 hPa fallend
03:58 6.8 °C 4.0 °C 64% 78% NNW 337 ° 1 km/h 9 km/h 0.0 mm 1003.70 hPa langsam fallend
04:58 6.6 °C 0.9 °C 64% 87% WNW 297 ° 6 km/h 13 km/h 0.0 mm 1003.60 hPa langsam fallend
05:58 6.4 °C 1.0 °C 64% 90% WNW 284 ° 5 km/h 13 km/h 0.0 mm 1003.60 hPa langsam fallend
06:58 6.2 °C 0.2 °C 63% 91% NW 315 ° 1 km/h 9 km/h 0.0 mm 1003.70 hPa gleichbleibend
07:58 5.9 °C 3.7 °C 64% 98% S 180 ° 0 km/h 3 km/h 0.0 mm 1004.10 hPa langsam steigend
08:58 6.1 °C 3.7 °C 66% 88% W 281 ° 3 km/h 9 km/h 0.0 mm 1004.40 hPa langsam steigend
09:58 7.0 °C 4.9 °C 68% 81% WNW 290 ° 4 km/h 7 km/h 0.0 mm 1004.50 hPa langsam steigend
10:58 8.1 °C 5.8 °C 71% 83% W 277 ° 6 km/h 12 km/h 0.0 mm 1005.00 hPa langsam steigend

 

Verlauf: letzte 24h
WIND   Windrose
(Klicke ins Bild, um den Hintergrund abzuschalten)
WIND   Windverkauf 2.5h
TEMP   Temperatur 2.5h
Druck   Luftdruck 2.5h
Regen   Luftdruck 2.5h